sensor_id;sensor_type;location;lat;lon;timestamp;P1;durP1;ratioP1;P2;durP2;ratioP2
72354;SDS011;60314;55.040;73.076;2022-08-20T00:00:31;50.58;;;10.80;;
72354;SDS011;60314;55.040;73.076;2022-08-20T00:03:03;45.10;;;9.75;;
72354;SDS011;60314;55.040;73.076;2022-08-20T00:05:40;69.28;;;11.75;;
72354;SDS011;60314;55.040;73.076;2022-08-20T00:08:10;44.17;;;10.40;;
72354;SDS011;60314;55.040;73.076;2022-08-20T00:10:48;42.35;;;11.18;;
72354;SDS011;60314;55.040;73.076;2022-08-20T00:13:19;48.05;;;10.38;;
72354;SDS011;60314;55.040;73.076;2022-08-20T00:15:48;73.83;;;12.17;;
72354;SDS011;60314;55.040;73.076;2022-08-20T00:18:14;76.93;;;10.48;;
72354;SDS011;60314;55.040;73.076;2022-08-20T00:20:43;68.00;;;10.45;;
72354;SDS011;60314;55.040;73.076;2022-08-20T00:23:12;107.13;;;11.32;;
72354;SDS011;60314;55.040;73.076;2022-08-20T00:25:39;61.38;;;11.02;;
72354;SDS011;60314;55.040;73.076;2022-08-20T00:28:09;68.90;;;9.27;;
72354;SDS011;60314;55.040;73.076;2022-08-20T00:30:36;65.05;;;10.63;;
72354;SDS011;60314;55.040;73.076;2022-08-20T00:33:15;44.30;;;9.48;;
72354;SDS011;60314;55.040;73.076;2022-08-20T00:35:49;63.50;;;9.13;;
72354;SDS011;60314;55.040;73.076;2022-08-20T00:38:18;109.55;;;10.90;;
72354;SDS011;60314;55.040;73.076;2022-08-20T00:40:49;62.25;;;9.32;;
72354;SDS011;60314;55.040;73.076;2022-08-20T00:43:33;56.20;;;8.65;;
72354;SDS011;60314;55.040;73.076;2022-08-20T00:46:15;82.10;;;9.25;;
72354;SDS011;60314;55.040;73.076;2022-08-20T00:48:49;81.72;;;10.68;;
72354;SDS011;60314;55.040;73.076;2022-08-20T00:54:21;112.72;;;11.70;;
72354;SDS011;60314;55.040;73.076;2022-08-20T00:56:57;169.43;;;11.23;;
72354;SDS011;60314;55.040;73.076;2022-08-20T00:59:28;136.57;;;10.98;;
72354;SDS011;60314;55.040;73.076;2022-08-20T01:01:57;261.48;;;13.48;;
72354;SDS011;60314;55.040;73.076;2022-08-20T01:04:26;145.82;;;11.38;;
72354;SDS011;60314;55.040;73.076;2022-08-20T01:07:06;252.13;;;12.02;;
72354;SDS011;60314;55.040;73.076;2022-08-20T01:09:33;168.50;;;9.77;;
72354;SDS011;60314;55.040;73.076;2022-08-20T01:12:07;168.07;;;10.05;;
72354;SDS011;60314;55.040;73.076;2022-08-20T01:14:45;261.33;;;12.45;;
72354;SDS011;60314;55.040;73.076;2022-08-20T01:17:22;122.97;;;10.43;;
72354;SDS011;60314;55.040;73.076;2022-08-20T01:20:05;85.70;;;9.75;;
72354;SDS011;60314;55.040;73.076;2022-08-20T01:25:49;111.55;;;9.73;;
72354;SDS011;60314;55.040;73.076;2022-08-20T01:28:21;96.40;;;9.43;;
72354;SDS011;60314;55.040;73.076;2022-08-20T01:31:12;99.57;;;8.90;;
72354;SDS011;60314;55.040;73.076;2022-08-20T01:33:43;83.68;;;8.32;;
72354;SDS011;60314;55.040;73.076;2022-08-20T01:36:12;105.82;;;9.05;;
72354;SDS011;60314;55.040;73.076;2022-08-20T01:38:40;55.20;;;9.07;;
72354;SDS011;60314;55.040;73.076;2022-08-20T01:43:44;72.85;;;8.70;;
72354;SDS011;60314;55.040;73.076;2022-08-20T01:46:11;26.45;;;7.25;;
72354;SDS011;60314;55.040;73.076;2022-08-20T01:48:39;42.92;;;7.32;;
72354;SDS011;60314;55.040;73.076;2022-08-20T01:51:12;37.47;;;7.10;;
72354;SDS011;60314;55.040;73.076;2022-08-20T01:53:43;33.22;;;6.15;;
72354;SDS011;60314;55.040;73.076;2022-08-20T01:56:13;48.38;;;6.95;;
72354;SDS011;60314;55.040;73.076;2022-08-20T01:58:44;55.63;;;7.63;;
72354;SDS011;60314;55.040;73.076;2022-08-20T02:04:07;16.17;;;6.43;;
72354;SDS011;60314;55.040;73.076;2022-08-20T02:06:37;22.67;;;6.05;;
72354;SDS011;60314;55.040;73.076;2022-08-20T02:09:10;41.08;;;6.90;;
72354;SDS011;60314;55.040;73.076;2022-08-20T02:11:56;21.33;;;6.50;;
72354;SDS011;60314;55.040;73.076;2022-08-20T02:14:25;43.20;;;6.53;;
72354;SDS011;60314;55.040;73.076;2022-08-20T02:16:52;47.28;;;6.50;;
72354;SDS011;60314;55.040;73.076;2022-08-20T02:19:21;47.45;;;6.63;;
72354;SDS011;60314;55.040;73.076;2022-08-20T02:21:52;23.20;;;6.32;;
72354;SDS011;60314;55.040;73.076;2022-08-20T02:24:21;38.15;;;6.88;;
72354;SDS011;60314;55.040;73.076;2022-08-20T02:26:57;39.13;;;6.80;;
72354;SDS011;60314;55.040;73.076;2022-08-20T02:29:23;17.73;;;6.38;;
72354;SDS011;60314;55.040;73.076;2022-08-20T02:32:00;21.20;;;6.35;;
72354;SDS011;60314;55.040;73.076;2022-08-20T02:34:37;27.38;;;6.70;;
72354;SDS011;60314;55.040;73.076;2022-08-20T02:37:04;26.83;;;7.00;;
72354;SDS011;60314;55.040;73.076;2022-08-20T02:39:36;16.48;;;6.80;;
72354;SDS011;60314;55.040;73.076;2022-08-20T02:42:05;30.05;;;7.47;;
72354;SDS011;60314;55.040;73.076;2022-08-20T02:44:44;32.15;;;7.45;;
72354;SDS011;60314;55.040;73.076;2022-08-20T02:47:22;30.02;;;8.43;;
72354;SDS011;60314;55.040;73.076;2022-08-20T02:49:58;14.50;;;7.13;;
72354;SDS011;60314;55.040;73.076;2022-08-20T02:52:34;17.65;;;6.65;;
72354;SDS011;60314;55.040;73.076;2022-08-20T02:55:02;25.92;;;7.63;;
72354;SDS011;60314;55.040;73.076;2022-08-20T02:57:29;26.73;;;7.97;;
72354;SDS011;60314;55.040;73.076;2022-08-20T02:59:55;25.27;;;7.90;;
72354;SDS011;60314;55.040;73.076;2022-08-20T03:02:22;23.52;;;7.88;;
72354;SDS011;60314;55.040;73.076;2022-08-20T03:05:07;21.95;;;7.95;;
72354;SDS011;60314;55.040;73.076;2022-08-20T03:07:48;22.98;;;6.78;;
72354;SDS011;60314;55.040;73.076;2022-08-20T03:10:30;34.60;;;8.68;;
72354;SDS011;60314;55.040;73.076;2022-08-20T03:13:02;22.13;;;7.57;;
72354;SDS011;60314;55.040;73.076;2022-08-20T03:15:31;22.17;;;7.78;;
72354;SDS011;60314;55.040;73.076;2022-08-20T03:17:58;16.20;;;6.80;;
72354;SDS011;60314;55.040;73.076;2022-08-20T03:20:26;14.02;;;6.88;;
72354;SDS011;60314;55.040;73.076;2022-08-20T03:22:54;14.70;;;6.47;;
72354;SDS011;60314;55.040;73.076;2022-08-20T03:25:21;15.45;;;6.63;;
72354;SDS011;60314;55.040;73.076;2022-08-20T03:27:48;29.05;;;6.20;;
72354;SDS011;60314;55.040;73.076;2022-08-20T03:30:21;23.35;;;6.57;;
72354;SDS011;60314;55.040;73.076;2022-08-20T03:32:49;36.30;;;7.07;;
72354;SDS011;60314;55.040;73.076;2022-08-20T03:35:17;24.98;;;6.43;;
72354;SDS011;60314;55.040;73.076;2022-08-20T03:37:46;15.57;;;6.50;;
72354;SDS011;60314;55.040;73.076;2022-08-20T03:40:14;14.15;;;6.55;;
72354;SDS011;60314;55.040;73.076;2022-08-20T03:42:47;13.55;;;6.10;;
72354;SDS011;60314;55.040;73.076;2022-08-20T03:45:20;11.15;;;6.05;;
72354;SDS011;60314;55.040;73.076;2022-08-20T03:47:48;9.70;;;5.80;;
72354;SDS011;60314;55.040;73.076;2022-08-20T03:50:17;16.08;;;5.68;;
72354;SDS011;60314;55.040;73.076;2022-08-20T03:52:55;10.82;;;5.72;;
72354;SDS011;60314;55.040;73.076;2022-08-20T03:55:23;8.98;;;6.03;;
72354;SDS011;60314;55.040;73.076;2022-08-20T03:57:52;9.38;;;5.78;;
72354;SDS011;60314;55.040;73.076;2022-08-20T04:00:27;10.40;;;6.25;;
72354;SDS011;60314;55.040;73.076;2022-08-20T04:03:00;10.30;;;6.45;;
72354;SDS011;60314;55.040;73.076;2022-08-20T04:05:29;13.07;;;6.18;;
72354;SDS011;60314;55.040;73.076;2022-08-20T04:08:01;11.32;;;6.00;;
72354;SDS011;60314;55.040;73.076;2022-08-20T04:10:33;10.35;;;6.32;;
72354;SDS011;60314;55.040;73.076;2022-08-20T04:13:00;10.38;;;6.20;;
72354;SDS011;60314;55.040;73.076;2022-08-20T04:15:27;9.88;;;6.47;;
72354;SDS011;60314;55.040;73.076;2022-08-20T04:17:53;10.77;;;6.75;;
72354;SDS011;60314;55.040;73.076;2022-08-20T04:20:21;10.60;;;6.72;;
72354;SDS011;60314;55.040;73.076;2022-08-20T04:22:51;10.60;;;7.13;;
72354;SDS011;60314;55.040;73.076;2022-08-20T04:25:19;10.85;;;7.20;;
72354;SDS011;60314;55.040;73.076;2022-08-20T04:27:57;9.50;;;6.50;;
72354;SDS011;60314;55.040;73.076;2022-08-20T04:30:43;9.98;;;6.50;;
72354;SDS011;60314;55.040;73.076;2022-08-20T04:33:10;10.02;;;6.78;;
72354;SDS011;60314;55.040;73.076;2022-08-20T04:35:36;9.90;;;6.75;;
72354;SDS011;60314;55.040;73.076;2022-08-20T04:38:12;10.38;;;6.68;;
72354;SDS011;60314;55.040;73.076;2022-08-20T04:40:40;10.65;;;7.30;;
72354;SDS011;60314;55.040;73.076;2022-08-20T04:43:33;11.77;;;7.38;;
72354;SDS011;60314;55.040;73.076;2022-08-20T04:46:07;12.93;;;6.80;;
72354;SDS011;60314;55.040;73.076;2022-08-20T04:48:36;9.07;;;6.20;;
72354;SDS011;60314;55.040;73.076;2022-08-20T04:51:04;8.82;;;6.38;;
72354;SDS011;60314;55.040;73.076;2022-08-20T04:53:33;10.25;;;7.18;;
72354;SDS011;60314;55.040;73.076;2022-08-20T04:56:00;10.77;;;7.20;;
72354;SDS011;60314;55.040;73.076;2022-08-20T04:58:30;11.40;;;7.05;;
72354;SDS011;60314;55.040;73.076;2022-08-20T05:01:03;11.70;;;7.15;;
72354;SDS011;60314;55.040;73.076;2022-08-20T05:03:31;11.52;;;6.40;;
72354;SDS011;60314;55.040;73.076;2022-08-20T05:05:59;10.30;;;6.07;;
72354;SDS011;60314;55.040;73.076;2022-08-20T05:08:26;8.98;;;6.28;;
72354;SDS011;60314;55.040;73.076;2022-08-20T05:11:05;9.63;;;6.55;;
72354;SDS011;60314;55.040;73.076;2022-08-20T05:13:34;9.23;;;6.10;;
72354;SDS011;60314;55.040;73.076;2022-08-20T05:16:00;9.63;;;6.97;;
72354;SDS011;60314;55.040;73.076;2022-08-20T05:18:31;9.98;;;6.63;;
72354;SDS011;60314;55.040;73.076;2022-08-20T05:20:58;10.13;;;6.72;;
72354;SDS011;60314;55.040;73.076;2022-08-20T05:25:58;13.43;;;7.43;;
72354;SDS011;60314;55.040;73.076;2022-08-20T05:28:25;10.60;;;7.28;;
72354;SDS011;60314;55.040;73.076;2022-08-20T05:30:58;9.80;;;6.85;;
72354;SDS011;60314;55.040;73.076;2022-08-20T05:33:30;10.00;;;6.88;;
72354;SDS011;60314;55.040;73.076;2022-08-20T05:35:57;10.57;;;6.78;;
72354;SDS011;60314;55.040;73.076;2022-08-20T05:38:27;9.63;;;6.68;;
72354;SDS011;60314;55.040;73.076;2022-08-20T05:40:55;13.38;;;7.18;;
72354;SDS011;60314;55.040;73.076;2022-08-20T05:43:22;10.70;;;7.25;;
72354;SDS011;60314;55.040;73.076;2022-08-20T05:45:59;10.25;;;6.55;;
72354;SDS011;60314;55.040;73.076;2022-08-20T05:48:26;11.00;;;7.18;;
72354;SDS011;60314;55.040;73.076;2022-08-20T05:51:03;9.40;;;6.38;;
72354;SDS011;60314;55.040;73.076;2022-08-20T05:53:30;9.52;;;6.70;;
72354;SDS011;60314;55.040;73.076;2022-08-20T05:55:58;8.95;;;6.53;;
72354;SDS011;60314;55.040;73.076;2022-08-20T05:58:26;11.50;;;6.78;;
72354;SDS011;60314;55.040;73.076;2022-08-20T06:00:55;9.88;;;6.40;;
72354;SDS011;60314;55.040;73.076;2022-08-20T06:03:23;9.50;;;6.15;;
72354;SDS011;60314;55.040;73.076;2022-08-20T06:06:09;9.02;;;6.20;;
72354;SDS011;60314;55.040;73.076;2022-08-20T06:08:35;9.52;;;6.85;;
72354;SDS011;60314;55.040;73.076;2022-08-20T06:11:03;9.32;;;5.95;;
72354;SDS011;60314;55.040;73.076;2022-08-20T06:13:33;8.82;;;6.20;;
72354;SDS011;60314;55.040;73.076;2022-08-20T06:16:00;10.75;;;6.55;;
72354;SDS011;60314;55.040;73.076;2022-08-20T06:18:26;8.85;;;6.07;;
72354;SDS011;60314;55.040;73.076;2022-08-20T06:20:58;9.77;;;7.07;;
72354;SDS011;60314;55.040;73.076;2022-08-20T06:23:25;9.82;;;6.05;;
72354;SDS011;60314;55.040;73.076;2022-08-20T06:25:52;9.05;;;6.45;;
72354;SDS011;60314;55.040;73.076;2022-08-20T06:28:19;8.80;;;6.35;;
72354;SDS011;60314;55.040;73.076;2022-08-20T06:30:57;10.05;;;6.68;;
72354;SDS011;60314;55.040;73.076;2022-08-20T06:33:25;11.68;;;6.90;;
72354;SDS011;60314;55.040;73.076;2022-08-20T06:35:51;11.15;;;7.50;;
72354;SDS011;60314;55.040;73.076;2022-08-20T06:38:18;10.70;;;6.05;;
72354;SDS011;60314;55.040;73.076;2022-08-20T06:40:45;8.93;;;6.18;;
72354;SDS011;60314;55.040;73.076;2022-08-20T06:43:11;9.65;;;6.43;;
72354;SDS011;60314;55.040;73.076;2022-08-20T06:45:48;9.45;;;6.78;;
72354;SDS011;60314;55.040;73.076;2022-08-20T06:48:14;9.77;;;6.72;;
72354;SDS011;60314;55.040;73.076;2022-08-20T06:50:45;10.55;;;7.00;;
72354;SDS011;60314;55.040;73.076;2022-08-20T06:53:13;11.80;;;7.25;;
72354;SDS011;60314;55.040;73.076;2022-08-20T06:55:43;9.90;;;6.25;;
72354;SDS011;60314;55.040;73.076;2022-08-20T06:58:13;10.38;;;6.75;;
72354;SDS011;60314;55.040;73.076;2022-08-20T07:00:40;11.25;;;7.50;;
72354;SDS011;60314;55.040;73.076;2022-08-20T07:03:08;10.15;;;6.55;;
72354;SDS011;60314;55.040;73.076;2022-08-20T07:05:36;8.57;;;6.47;;
72354;SDS011;60314;55.040;73.076;2022-08-20T07:08:22;9.82;;;6.60;;
72354;SDS011;60314;55.040;73.076;2022-08-20T07:10:48;9.60;;;6.43;;
72354;SDS011;60314;55.040;73.076;2022-08-20T07:13:16;9.60;;;6.60;;
72354;SDS011;60314;55.040;73.076;2022-08-20T07:15:47;8.88;;;7.03;;
72354;SDS011;60314;55.040;73.076;2022-08-20T07:18:15;11.80;;;7.00;;
72354;SDS011;60314;55.040;73.076;2022-08-20T07:20:42;10.95;;;6.40;;
72354;SDS011;60314;55.040;73.076;2022-08-20T07:23:09;9.32;;;6.53;;
72354;SDS011;60314;55.040;73.076;2022-08-20T07:25:39;9.68;;;7.13;;
72354;SDS011;60314;55.040;73.076;2022-08-20T07:28:17;9.55;;;6.93;;
72354;SDS011;60314;55.040;73.076;2022-08-20T07:30:47;12.65;;;7.05;;
72354;SDS011;60314;55.040;73.076;2022-08-20T07:33:32;9.02;;;6.60;;
72354;SDS011;60314;55.040;73.076;2022-08-20T07:36:00;9.02;;;6.82;;
72354;SDS011;60314;55.040;73.076;2022-08-20T07:38:31;8.50;;;6.22;;
72354;SDS011;60314;55.040;73.076;2022-08-20T07:41:17;8.55;;;5.97;;
72354;SDS011;60314;55.040;73.076;2022-08-20T07:43:45;9.25;;;7.13;;
72354;SDS011;60314;55.040;73.076;2022-08-20T07:46:13;8.65;;;5.90;;
72354;SDS011;60314;55.040;73.076;2022-08-20T07:48:42;8.95;;;6.72;;
72354;SDS011;60314;55.040;73.076;2022-08-20T07:51:24;8.23;;;6.40;;
72354;SDS011;60314;55.040;73.076;2022-08-20T07:53:51;9.18;;;6.38;;
72354;SDS011;60314;55.040;73.076;2022-08-20T07:56:19;8.13;;;6.10;;
72354;SDS011;60314;55.040;73.076;2022-08-20T07:58:50;8.25;;;6.32;;
72354;SDS011;60314;55.040;73.076;2022-08-20T08:01:24;38.65;;;18.75;;
72354;SDS011;60314;55.040;73.076;2022-08-20T08:03:54;108.82;;;47.28;;
72354;SDS011;60314;55.040;73.076;2022-08-20T08:06:32;11.38;;;6.93;;
72354;SDS011;60314;55.040;73.076;2022-08-20T08:09:10;19.73;;;12.98;;
72354;SDS011;60314;55.040;73.076;2022-08-20T08:11:40;11.77;;;9.80;;
72354;SDS011;60314;55.040;73.076;2022-08-20T08:14:20;10.45;;;8.15;;
72354;SDS011;60314;55.040;73.076;2022-08-20T08:16:52;10.48;;;7.05;;
72354;SDS011;60314;55.040;73.076;2022-08-20T08:19:20;10.13;;;6.60;;
72354;SDS011;60314;55.040;73.076;2022-08-20T08:21:48;13.93;;;8.85;;
72354;SDS011;60314;55.040;73.076;2022-08-20T08:24:14;9.43;;;6.18;;
72354;SDS011;60314;55.040;73.076;2022-08-20T08:26:43;8.60;;;6.75;;
72354;SDS011;60314;55.040;73.076;2022-08-20T08:29:10;8.07;;;6.45;;
72354;SDS011;60314;55.040;73.076;2022-08-20T08:31:55;8.25;;;6.03;;
72354;SDS011;60314;55.040;73.076;2022-08-20T08:34:21;7.93;;;6.05;;
72354;SDS011;60314;55.040;73.076;2022-08-20T08:36:56;8.93;;;5.97;;
72354;SDS011;60314;55.040;73.076;2022-08-20T08:39:24;8.93;;;5.93;;
72354;SDS011;60314;55.040;73.076;2022-08-20T08:41:56;9.68;;;6.15;;
72354;SDS011;60314;55.040;73.076;2022-08-20T08:44:36;7.72;;;5.75;;
72354;SDS011;60314;55.040;73.076;2022-08-20T08:47:28;8.50;;;6.45;;
72354;SDS011;60314;55.040;73.076;2022-08-20T08:49:57;8.00;;;5.43;;
72354;SDS011;60314;55.040;73.076;2022-08-20T08:52:25;7.45;;;5.75;;
72354;SDS011;60314;55.040;73.076;2022-08-20T08:55:05;6.85;;;5.15;;
72354;SDS011;60314;55.040;73.076;2022-08-20T08:57:35;18.85;;;14.18;;
72354;SDS011;60314;55.040;73.076;2022-08-20T09:00:04;8.02;;;5.70;;
72354;SDS011;60314;55.040;73.076;2022-08-20T09:02:35;9.65;;;7.47;;
72354;SDS011;60314;55.040;73.076;2022-08-20T09:05:11;8.68;;;5.90;;
72354;SDS011;60314;55.040;73.076;2022-08-20T09:07:39;7.15;;;5.60;;
72354;SDS011;60314;55.040;73.076;2022-08-20T09:10:10;8.38;;;6.07;;
72354;SDS011;60314;55.040;73.076;2022-08-20T09:12:36;10.10;;;7.00;;
72354;SDS011;60314;55.040;73.076;2022-08-20T09:15:03;10.02;;;6.80;;
72354;SDS011;60314;55.040;73.076;2022-08-20T09:17:35;7.78;;;5.55;;
72354;SDS011;60314;55.040;73.076;2022-08-20T09:20:02;9.82;;;6.32;;
72354;SDS011;60314;55.040;73.076;2022-08-20T09:22:29;7.72;;;5.82;;
72354;SDS011;60314;55.040;73.076;2022-08-20T09:25:14;10.18;;;6.75;;
72354;SDS011;60314;55.040;73.076;2022-08-20T09:27:41;77.72;;;67.22;;
72354;SDS011;60314;55.040;73.076;2022-08-20T09:30:08;20.80;;;18.60;;
72354;SDS011;60314;55.040;73.076;2022-08-20T09:32:35;8.63;;;5.63;;
72354;SDS011;60314;55.040;73.076;2022-08-20T09:35:09;8.15;;;6.28;;
72354;SDS011;60314;55.040;73.076;2022-08-20T09:37:36;7.90;;;5.45;;
72354;SDS011;60314;55.040;73.076;2022-08-20T09:40:03;10.90;;;5.43;;
72354;SDS011;60314;55.040;73.076;2022-08-20T09:42:32;8.02;;;5.68;;
72354;SDS011;60314;55.040;73.076;2022-08-20T09:44:59;8.15;;;5.78;;
72354;SDS011;60314;55.040;73.076;2022-08-20T09:47:30;8.38;;;5.60;;
72354;SDS011;60314;55.040;73.076;2022-08-20T09:50:02;7.33;;;5.13;;
72354;SDS011;60314;55.040;73.076;2022-08-20T09:52:35;8.13;;;6.05;;
72354;SDS011;60314;55.040;73.076;2022-08-20T09:55:08;7.43;;;5.40;;
72354;SDS011;60314;55.040;73.076;2022-08-20T09:57:46;8.05;;;5.97;;
72354;SDS011;60314;55.040;73.076;2022-08-20T10:00:15;6.85;;;5.20;;
72354;SDS011;60314;55.040;73.076;2022-08-20T10:02:42;7.45;;;5.18;;
72354;SDS011;60314;55.040;73.076;2022-08-20T10:05:09;8.48;;;5.53;;
72354;SDS011;60314;55.040;73.076;2022-08-20T10:07:46;7.43;;;5.70;;
72354;SDS011;60314;55.040;73.076;2022-08-20T10:10:13;8.88;;;6.53;;
72354;SDS011;60314;55.040;73.076;2022-08-20T10:12:41;8.13;;;6.10;;
72354;SDS011;60314;55.040;73.076;2022-08-20T10:15:08;7.18;;;5.45;;
72354;SDS011;60314;55.040;73.076;2022-08-20T10:17:36;7.20;;;5.60;;
72354;SDS011;60314;55.040;73.076;2022-08-20T10:20:04;7.38;;;5.35;;
72354;SDS011;60314;55.040;73.076;2022-08-20T10:22:32;7.93;;;5.30;;
72354;SDS011;60314;55.040;73.076;2022-08-20T10:24:58;5.97;;;4.38;;
72354;SDS011;60314;55.040;73.076;2022-08-20T10:27:25;10.15;;;5.40;;
72354;SDS011;60314;55.040;73.076;2022-08-20T10:29:52;7.68;;;5.43;;
72354;SDS011;60314;55.040;73.076;2022-08-20T10:32:18;7.95;;;4.93;;
72354;SDS011;60314;55.040;73.076;2022-08-20T10:34:45;8.25;;;5.53;;
72354;SDS011;60314;55.040;73.076;2022-08-20T10:37:15;6.50;;;4.97;;
72354;SDS011;60314;55.040;73.076;2022-08-20T10:39:48;9.43;;;5.78;;
72354;SDS011;60314;55.040;73.076;2022-08-20T10:42:15;7.28;;;4.93;;
72354;SDS011;60314;55.040;73.076;2022-08-20T10:44:41;7.47;;;5.07;;
72354;SDS011;60314;55.040;73.076;2022-08-20T10:47:12;6.88;;;5.00;;
72354;SDS011;60314;55.040;73.076;2022-08-20T10:49:45;6.18;;;4.82;;
72354;SDS011;60314;55.040;73.076;2022-08-20T10:52:12;7.07;;;5.25;;
72354;SDS011;60314;55.040;73.076;2022-08-20T10:54:39;9.20;;;7.97;;
72354;SDS011;60314;55.040;73.076;2022-08-20T10:57:12;11.20;;;9.55;;
72354;SDS011;60314;55.040;73.076;2022-08-20T10:59:44;10.25;;;9.18;;
72354;SDS011;60314;55.040;73.076;2022-08-20T11:02:23;9.57;;;7.00;;
72354;SDS011;60314;55.040;73.076;2022-08-20T11:04:50;9.48;;;8.15;;
72354;SDS011;60314;55.040;73.076;2022-08-20T11:07:26;8.20;;;5.30;;
72354;SDS011;60314;55.040;73.076;2022-08-20T11:09:57;7.45;;;5.30;;
72354;SDS011;60314;55.040;73.076;2022-08-20T11:12:24;6.90;;;5.00;;
72354;SDS011;60314;55.040;73.076;2022-08-20T11:14:51;8.82;;;5.28;;
72354;SDS011;60314;55.040;73.076;2022-08-20T11:17:21;7.57;;;5.18;;
72354;SDS011;60314;55.040;73.076;2022-08-20T11:19:54;7.07;;;5.20;;
72354;SDS011;60314;55.040;73.076;2022-08-20T11:22:26;8.35;;;5.60;;
72354;SDS011;60314;55.040;73.076;2022-08-20T11:24:57;7.85;;;5.78;;
72354;SDS011;60314;55.040;73.076;2022-08-20T11:30:12;8.20;;;5.05;;
72354;SDS011;60314;55.040;73.076;2022-08-20T11:32:42;9.13;;;5.50;;
72354;SDS011;60314;55.040;73.076;2022-08-20T11:35:08;7.30;;;5.60;;
72354;SDS011;60314;55.040;73.076;2022-08-20T11:37:35;7.80;;;6.05;;
72354;SDS011;60314;55.040;73.076;2022-08-20T11:40:02;6.57;;;5.07;;
72354;SDS011;60314;55.040;73.076;2022-08-20T11:42:30;7.15;;;4.85;;
72354;SDS011;60314;55.040;73.076;2022-08-20T11:44:56;6.90;;;5.10;;
72354;SDS011;60314;55.040;73.076;2022-08-20T11:47:41;7.60;;;5.22;;
72354;SDS011;60314;55.040;73.076;2022-08-20T11:50:09;7.75;;;5.53;;
72354;SDS011;60314;55.040;73.076;2022-08-20T11:52:39;8.13;;;5.40;;
72354;SDS011;60314;55.040;73.076;2022-08-20T11:55:07;6.80;;;5.13;;
72354;SDS011;60314;55.040;73.076;2022-08-20T11:57:39;7.82;;;4.60;;
72354;SDS011;60314;55.040;73.076;2022-08-20T12:00:10;7.22;;;4.70;;
72354;SDS011;60314;55.040;73.076;2022-08-20T12:02:40;7.78;;;4.53;;
72354;SDS011;60314;55.040;73.076;2022-08-20T12:05:07;9.40;;;5.00;;
72354;SDS011;60314;55.040;73.076;2022-08-20T12:07:35;8.23;;;5.50;;
72354;SDS011;60314;55.040;73.076;2022-08-20T12:12:35;12.20;;;5.60;;
72354;SDS011;60314;55.040;73.076;2022-08-20T12:15:04;11.10;;;5.72;;
72354;SDS011;60314;55.040;73.076;2022-08-20T12:17:32;9.43;;;6.18;;
72354;SDS011;60314;55.040;73.076;2022-08-20T12:20:00;8.02;;;5.40;;
72354;SDS011;60314;55.040;73.076;2022-08-20T12:22:28;34.47;;;21.20;;
72354;SDS011;60314;55.040;73.076;2022-08-20T12:25:13;191.93;;;119.25;;
72354;SDS011;60314;55.040;73.076;2022-08-20T12:27:42;25.40;;;20.48;;
72354;SDS011;60314;55.040;73.076;2022-08-20T12:30:10;7.13;;;5.13;;
72354;SDS011;60314;55.040;73.076;2022-08-20T12:32:42;8.27;;;5.38;;
72354;SDS011;60314;55.040;73.076;2022-08-20T12:35:09;6.10;;;4.68;;
72354;SDS011;60314;55.040;73.076;2022-08-20T12:37:37;6.35;;;4.70;;
72354;SDS011;60314;55.040;73.076;2022-08-20T12:40:06;8.60;;;5.47;;
72354;SDS011;60314;55.040;73.076;2022-08-20T12:42:35;8.10;;;5.30;;
72354;SDS011;60314;55.040;73.076;2022-08-20T12:45:02;10.50;;;5.45;;
72354;SDS011;60314;55.040;73.076;2022-08-20T12:47:30;7.90;;;5.22;;
72354;SDS011;60314;55.040;73.076;2022-08-20T12:49:59;7.53;;;5.13;;
72354;SDS011;60314;55.040;73.076;2022-08-20T12:52:31;7.80;;;5.00;;
72354;SDS011;60314;55.040;73.076;2022-08-20T12:54:58;8.65;;;5.40;;
72354;SDS011;60314;55.040;73.076;2022-08-20T12:57:26;8.35;;;6.03;;
72354;SDS011;60314;55.040;73.076;2022-08-20T13:00:09;8.38;;;6.00;;
72354;SDS011;60314;55.040;73.076;2022-08-20T13:02:38;8.70;;;5.32;;
72354;SDS011;60314;55.040;73.076;2022-08-20T13:05:09;7.40;;;5.43;;
72354;SDS011;60314;55.040;73.076;2022-08-20T13:07:36;9.30;;;6.20;;
72354;SDS011;60314;55.040;73.076;2022-08-20T13:10:05;9.93;;;6.32;;
72354;SDS011;60314;55.040;73.076;2022-08-20T13:12:34;8.73;;;5.40;;
72354;SDS011;60314;55.040;73.076;2022-08-20T13:15:01;11.38;;;6.90;;
72354;SDS011;60314;55.040;73.076;2022-08-20T13:17:28;11.27;;;7.15;;
72354;SDS011;60314;55.040;73.076;2022-08-20T13:19:54;11.48;;;6.65;;
72354;SDS011;60314;55.040;73.076;2022-08-20T13:22:21;10.27;;;6.55;;
72354;SDS011;60314;55.040;73.076;2022-08-20T13:24:47;8.20;;;5.80;;
72354;SDS011;60314;55.040;73.076;2022-08-20T13:27:15;10.63;;;5.90;;
72354;SDS011;60314;55.040;73.076;2022-08-20T13:29:50;11.73;;;7.53;;
72354;SDS011;60314;55.040;73.076;2022-08-20T13:32:18;18.10;;;12.40;;
72354;SDS011;60314;55.040;73.076;2022-08-20T13:34:46;24.90;;;16.13;;
72354;SDS011;60314;55.040;73.076;2022-08-20T13:37:17;23.00;;;12.20;;
72354;SDS011;60314;55.040;73.076;2022-08-20T13:39:55;18.08;;;11.50;;
72354;SDS011;60314;55.040;73.076;2022-08-20T13:42:23;23.15;;;11.52;;
72354;SDS011;60314;55.040;73.076;2022-08-20T13:44:50;18.25;;;11.10;;
72354;SDS011;60314;55.040;73.076;2022-08-20T13:47:18;19.85;;;12.32;;
72354;SDS011;60314;55.040;73.076;2022-08-20T13:49:59;25.00;;;13.32;;
72354;SDS011;60314;55.040;73.076;2022-08-20T13:52:36;25.00;;;15.30;;
72354;SDS011;60314;55.040;73.076;2022-08-20T13:55:05;24.88;;;16.55;;
72354;SDS011;60314;55.040;73.076;2022-08-20T13:57:33;31.25;;;18.60;;
72354;SDS011;60314;55.040;73.076;2022-08-20T14:00:01;34.83;;;19.90;;
72354;SDS011;60314;55.040;73.076;2022-08-20T14:02:36;28.50;;;18.33;;
72354;SDS011;60314;55.040;73.076;2022-08-20T14:05:02;26.70;;;17.77;;
72354;SDS011;60314;55.040;73.076;2022-08-20T14:07:32;26.13;;;16.63;;
72354;SDS011;60314;55.040;73.076;2022-08-20T14:10:05;26.00;;;16.60;;
72354;SDS011;60314;55.040;73.076;2022-08-20T14:12:33;30.40;;;15.98;;
72354;SDS011;60314;55.040;73.076;2022-08-20T14:15:00;25.83;;;17.40;;
72354;SDS011;60314;55.040;73.076;2022-08-20T14:17:27;27.23;;;17.60;;
72354;SDS011;60314;55.040;73.076;2022-08-20T14:19:57;24.92;;;16.35;;
72354;SDS011;60314;55.040;73.076;2022-08-20T14:22:29;27.40;;;17.52;;
72354;SDS011;60314;55.040;73.076;2022-08-20T14:24:56;29.25;;;18.00;;
72354;SDS011;60314;55.040;73.076;2022-08-20T14:27:27;32.65;;;17.15;;
72354;SDS011;60314;55.040;73.076;2022-08-20T14:29:55;30.90;;;18.65;;
72354;SDS011;60314;55.040;73.076;2022-08-20T14:32:22;32.88;;;17.00;;
72354;SDS011;60314;55.040;73.076;2022-08-20T14:34:49;41.40;;;18.17;;
72354;SDS011;60314;55.040;73.076;2022-08-20T14:37:22;28.75;;;18.08;;
72354;SDS011;60314;55.040;73.076;2022-08-20T14:39:51;29.30;;;19.48;;
72354;SDS011;60314;55.040;73.076;2022-08-20T14:42:22;28.42;;;18.38;;
72354;SDS011;60314;55.040;73.076;2022-08-20T14:44:51;39.75;;;22.80;;
72354;SDS011;60314;55.040;73.076;2022-08-20T14:47:19;32.35;;;19.85;;
72354;SDS011;60314;55.040;73.076;2022-08-20T14:49:52;41.38;;;23.25;;
72354;SDS011;60314;55.040;73.076;2022-08-20T14:52:24;46.80;;;25.55;;
72354;SDS011;60314;55.040;73.076;2022-08-20T14:54:51;39.65;;;23.20;;
72354;SDS011;60314;55.040;73.076;2022-08-20T14:57:17;37.08;;;22.20;;
72354;SDS011;60314;55.040;73.076;2022-08-20T14:59:45;27.65;;;17.92;;
72354;SDS011;60314;55.040;73.076;2022-08-20T15:02:15;26.92;;;14.77;;